sensor_id;sensor_type;location;lat;lon;timestamp;pressure;altitude;pressure_sealevel;temperature;humidity
10712;BME280;5407;51.234;6.804;2023-03-16T00:01:04;101434.47;;;23.96;32.88
10712;BME280;5407;51.234;6.804;2023-03-16T00:03:31;101428.16;;;23.96;32.89
10712;BME280;5407;51.234;6.804;2023-03-16T00:05:58;101430.53;;;23.97;33.07
10712;BME280;5407;51.234;6.804;2023-03-16T00:08:27;101422.25;;;23.97;33.25
10712;BME280;5407;51.234;6.804;2023-03-16T00:10:53;101419.50;;;23.97;33.23
10712;BME280;5407;51.234;6.804;2023-03-16T00:13:22;101422.63;;;23.99;33.34
10712;BME280;5407;51.234;6.804;2023-03-16T00:15:50;101406.84;;;24.00;33.28
10712;BME280;5407;51.234;6.804;2023-03-16T00:18:17;101400.13;;;24.01;33.13
10712;BME280;5407;51.234;6.804;2023-03-16T00:20:49;101411.97;;;24.01;33.19
10712;BME280;5407;51.234;6.804;2023-03-16T00:23:16;101404.06;;;24.03;33.10
10712;BME280;5407;51.234;6.804;2023-03-16T00:25:44;101408.78;;;24.03;33.05
10712;BME280;5407;51.234;6.804;2023-03-16T00:28:11;101403.63;;;24.05;33.15
10712;BME280;5407;51.234;6.804;2023-03-16T00:30:38;101409.94;;;24.05;33.11
10712;BME280;5407;51.234;6.804;2023-03-16T00:33:05;101408.38;;;24.04;33.23
10712;BME280;5407;51.234;6.804;2023-03-16T00:35:32;101409.94;;;24.05;33.25
10712;BME280;5407;51.234;6.804;2023-03-16T00:37:59;101406.38;;;24.05;33.07
10712;BME280;5407;51.234;6.804;2023-03-16T00:40:26;101404.41;;;24.05;33.08
10712;BME280;5407;51.234;6.804;2023-03-16T00:42:54;101403.63;;;24.05;33.04
10712;BME280;5407;51.234;6.804;2023-03-16T00:45:21;101408.38;;;24.04;33.18
10712;BME280;5407;51.234;6.804;2023-03-16T00:47:48;101400.09;;;24.04;33.16
10712;BME280;5407;51.234;6.804;2023-03-16T00:50:18;101397.34;;;24.04;33.17
10712;BME280;5407;51.234;6.804;2023-03-16T00:52:46;101402.88;;;24.04;33.21
10712;BME280;5407;51.234;6.804;2023-03-16T00:55:13;101397.34;;;24.04;33.28
10712;BME280;5407;51.234;6.804;2023-03-16T00:57:40;101401.31;;;24.03;33.18
10712;BME280;5407;51.234;6.804;2023-03-16T01:00:10;101398.53;;;24.03;33.11
10712;BME280;5407;51.234;6.804;2023-03-16T01:02:40;101405.25;;;24.02;33.19
10712;BME280;5407;51.234;6.804;2023-03-16T01:05:07;101394.22;;;24.02;33.18
10712;BME280;5407;51.234;6.804;2023-03-16T01:07:34;101385.97;;;24.02;33.13
10712;BME280;5407;51.234;6.804;2023-03-16T01:10:02;101376.13;;;24.01;33.12
10712;BME280;5407;51.234;6.804;2023-03-16T01:12:29;101371.81;;;24.00;33.12
10712;BME280;5407;51.234;6.804;2023-03-16T01:14:55;101367.06;;;24.01;33.22
10712;BME280;5407;51.234;6.804;2023-03-16T01:17:26;101368.25;;;24.00;33.18
10712;BME280;5407;51.234;6.804;2023-03-16T01:19:53;101373.00;;;23.99;33.13
10712;BME280;5407;51.234;6.804;2023-03-16T01:22:20;101372.22;;;23.99;33.21
10712;BME280;5407;51.234;6.804;2023-03-16T01:24:47;101364.38;;;23.97;33.11
10712;BME280;5407;51.234;6.804;2023-03-16T01:27:13;101363.19;;;23.98;33.07
10712;BME280;5407;51.234;6.804;2023-03-16T01:29:40;101350.59;;;23.97;32.91
10712;BME280;5407;51.234;6.804;2023-03-16T01:32:09;101351.78;;;23.96;32.93
10712;BME280;5407;51.234;6.804;2023-03-16T01:34:38;101347.47;;;23.95;33.02
10712;BME280;5407;51.234;6.804;2023-03-16T01:37:05;101351.00;;;23.96;33.01
10712;BME280;5407;51.234;6.804;2023-03-16T01:39:47;101351.44;;;23.94;32.99
10712;BME280;5407;51.234;6.804;2023-03-16T01:42:14;101334.88;;;23.94;32.97
10712;BME280;5407;51.234;6.804;2023-03-16T01:44:50;101336.09;;;23.93;33.00
10712;BME280;5407;51.234;6.804;2023-03-16T01:47:19;101329.00;;;23.92;32.86
10712;BME280;5407;51.234;6.804;2023-03-16T01:49:48;101323.50;;;23.92;32.88
10712;BME280;5407;51.234;6.804;2023-03-16T01:52:24;101316.44;;;23.91;32.81
10712;BME280;5407;51.234;6.804;2023-03-16T01:54:55;101321.94;;;23.91;32.75
10712;BME280;5407;51.234;6.804;2023-03-16T01:57:25;101321.94;;;23.91;32.65
10712;BME280;5407;51.234;6.804;2023-03-16T01:59:57;101321.94;;;23.91;32.78
10712;BME280;5407;51.234;6.804;2023-03-16T02:02:41;101320.38;;;23.90;32.62
10712;BME280;5407;51.234;6.804;2023-03-16T02:05:16;101320.78;;;23.89;32.79
10712;BME280;5407;51.234;6.804;2023-03-16T02:07:46;101322.75;;;23.88;32.76
10712;BME280;5407;51.234;6.804;2023-03-16T02:10:16;101322.75;;;23.88;32.66
10712;BME280;5407;51.234;6.804;2023-03-16T02:12:44;101321.56;;;23.89;32.90
10712;BME280;5407;51.234;6.804;2023-03-16T02:15:12;101312.50;;;23.89;32.89
10712;BME280;5407;51.234;6.804;2023-03-16T02:17:40;101302.28;;;23.89;33.00
10712;BME280;5407;51.234;6.804;2023-03-16T02:20:20;101307.38;;;23.91;33.08
10712;BME280;5407;51.234;6.804;2023-03-16T02:22:52;101305.41;;;23.91;33.16
10712;BME280;5407;51.234;6.804;2023-03-16T02:25:22;101289.63;;;23.92;33.18
10712;BME280;5407;51.234;6.804;2023-03-16T02:27:56;101288.88;;;23.91;33.31
10712;BME280;5407;51.234;6.804;2023-03-16T02:30:28;101295.94;;;23.92;33.53
10712;BME280;5407;51.234;6.804;2023-03-16T02:32:59;101299.81;;;23.95;33.73
10712;BME280;5407;51.234;6.804;2023-03-16T02:35:26;101286.00;;;23.98;33.75
10712;BME280;5407;51.234;6.804;2023-03-16T02:37:53;101284.38;;;24.01;33.80
10712;BME280;5407;51.234;6.804;2023-03-16T02:40:24;101273.69;;;24.03;33.46
10712;BME280;5407;51.234;6.804;2023-03-16T02:43:06;101284.69;;;24.06;33.61
10712;BME280;5407;51.234;6.804;2023-03-16T02:45:45;101280.72;;;24.07;33.71
10712;BME280;5407;51.234;6.804;2023-03-16T02:48:18;101271.25;;;24.08;33.65
10712;BME280;5407;51.234;6.804;2023-03-16T02:50:49;101270.81;;;24.10;33.55
10712;BME280;5407;51.234;6.804;2023-03-16T02:53:17;101264.13;;;24.11;33.63
10712;BME280;5407;51.234;6.804;2023-03-16T02:55:44;101263.34;;;24.10;33.63
10712;BME280;5407;51.234;6.804;2023-03-16T02:58:11;101267.31;;;24.09;33.60
10712;BME280;5407;51.234;6.804;2023-03-16T03:00:40;101266.50;;;24.09;33.38
10712;BME280;5407;51.234;6.804;2023-03-16T03:03:07;101254.72;;;24.08;33.36
10712;BME280;5407;51.234;6.804;2023-03-16T03:05:34;101265.75;;;24.08;33.41
10712;BME280;5407;51.234;6.804;2023-03-16T03:08:02;101269.72;;;24.07;33.46
10712;BME280;5407;51.234;6.804;2023-03-16T03:10:29;101253.56;;;24.06;33.32
10712;BME280;5407;51.234;6.804;2023-03-16T03:12:57;101246.09;;;24.06;33.30
10712;BME280;5407;51.234;6.804;2023-03-16T03:15:24;101244.53;;;24.05;33.12
10712;BME280;5407;51.234;6.804;2023-03-16T03:18:04;101243.34;;;24.06;33.18
10712;BME280;5407;51.234;6.804;2023-03-16T03:20:31;101241.78;;;24.05;33.34
10712;BME280;5407;51.234;6.804;2023-03-16T03:22:58;101244.53;;;24.05;33.25
10712;BME280;5407;51.234;6.804;2023-03-16T03:25:25;101247.28;;;24.05;33.25
10712;BME280;5407;51.234;6.804;2023-03-16T03:27:53;101244.53;;;24.05;33.18
10712;BME280;5407;51.234;6.804;2023-03-16T03:30:23;101241.78;;;24.05;33.24
10712;BME280;5407;51.234;6.804;2023-03-16T03:32:50;101252.00;;;24.05;33.16
10712;BME280;5407;51.234;6.804;2023-03-16T03:35:20;101246.50;;;24.05;33.22
10712;BME280;5407;51.234;6.804;2023-03-16T03:37:47;101250.06;;;24.05;33.36
10712;BME280;5407;51.234;6.804;2023-03-16T03:40:17;101241.78;;;24.05;33.11
10712;BME280;5407;51.234;6.804;2023-03-16T03:42:48;101239.44;;;24.04;33.25
10712;BME280;5407;51.234;6.804;2023-03-16T03:45:16;101245.72;;;24.04;33.13
10712;BME280;5407;51.234;6.804;2023-03-16T03:47:44;101247.69;;;24.04;33.05
10712;BME280;5407;51.234;6.804;2023-03-16T03:50:17;101246.94;;;24.03;33.01
10712;BME280;5407;51.234;6.804;2023-03-16T03:53:11;101240.63;;;24.03;33.21
10712;BME280;5407;51.234;6.804;2023-03-16T03:55:58;101241.41;;;24.03;33.08
10712;BME280;5407;51.234;6.804;2023-03-16T03:58:25;101243.81;;;24.01;33.15
10712;BME280;5407;51.234;6.804;2023-03-16T04:00:51;101246.97;;;24.00;33.21
10712;BME280;5407;51.234;6.804;2023-03-16T04:03:18;101237.16;;;23.99;33.14
10712;BME280;5407;51.234;6.804;2023-03-16T04:05:46;101236.38;;;23.98;33.13
10712;BME280;5407;51.234;6.804;2023-03-16T04:08:14;101231.63;;;23.99;32.98
10712;BME280;5407;51.234;6.804;2023-03-16T04:10:42;101228.13;;;23.98;33.08
10712;BME280;5407;51.234;6.804;2023-03-16T04:13:09;101221.03;;;23.97;33.01
10712;BME280;5407;51.234;6.804;2023-03-16T04:15:36;101225.00;;;23.96;32.98
10712;BME280;5407;51.234;6.804;2023-03-16T04:18:11;101228.94;;;23.95;32.89
10712;BME280;5407;51.234;6.804;2023-03-16T04:20:39;101210.88;;;23.94;33.09
10712;BME280;5407;51.234;6.804;2023-03-16T04:23:06;101207.75;;;23.92;33.16
10712;BME280;5407;51.234;6.804;2023-03-16T04:25:36;101208.50;;;23.93;32.91
10712;BME280;5407;51.234;6.804;2023-03-16T04:28:04;101206.94;;;23.92;32.92
10712;BME280;5407;51.234;6.804;2023-03-16T04:30:33;101215.66;;;23.90;32.84
10712;BME280;5407;51.234;6.804;2023-03-16T04:33:13;101205.41;;;23.91;33.02
10712;BME280;5407;51.234;6.804;2023-03-16T04:35:40;101200.31;;;23.89;32.97
10712;BME280;5407;51.234;6.804;2023-03-16T04:38:08;101202.28;;;23.89;33.02
10712;BME280;5407;51.234;6.804;2023-03-16T04:40:45;101203.06;;;23.89;33.07
10712;BME280;5407;51.234;6.804;2023-03-16T04:43:16;101192.81;;;23.90;33.17
10712;BME280;5407;51.234;6.804;2023-03-16T04:45:44;101192.03;;;23.89;33.04
10712;BME280;5407;51.234;6.804;2023-03-16T04:48:10;101194.81;;;23.89;33.10
10712;BME280;5407;51.234;6.804;2023-03-16T04:50:38;101196.34;;;23.90;33.20
10712;BME280;5407;51.234;6.804;2023-03-16T04:53:05;101199.13;;;23.90;33.28
10712;BME280;5407;51.234;6.804;2023-03-16T04:55:32;101190.41;;;23.92;33.13
10712;BME280;5407;51.234;6.804;2023-03-16T04:58:02;101187.66;;;23.92;33.26
10712;BME280;5407;51.234;6.804;2023-03-16T05:00:33;101193.97;;;23.92;33.36
10712;BME280;5407;51.234;6.804;2023-03-16T05:03:17;101192.78;;;23.93;33.49
10712;BME280;5407;51.234;6.804;2023-03-16T05:05:45;101184.50;;;23.93;33.76
10712;BME280;5407;51.234;6.804;2023-03-16T05:08:13;101190.38;;;23.95;33.69
10712;BME280;5407;51.234;6.804;2023-03-16T05:10:42;101197.44;;;23.96;33.64
10712;BME280;5407;51.234;6.804;2023-03-16T05:13:13;101191.50;;;23.98;33.72
10712;BME280;5407;51.234;6.804;2023-03-16T05:15:41;101192.66;;;24.00;33.73
10712;BME280;5407;51.234;6.804;2023-03-16T05:18:24;101196.53;;;24.03;33.49
10712;BME280;5407;51.234;6.804;2023-03-16T05:20:53;101197.31;;;24.03;33.56
10712;BME280;5407;51.234;6.804;2023-03-16T05:23:21;101191.81;;;24.03;33.40
10712;BME280;5407;51.234;6.804;2023-03-16T05:25:54;101186.28;;;24.03;33.47
10712;BME280;5407;51.234;6.804;2023-03-16T05:28:26;101194.56;;;24.03;33.30
10712;BME280;5407;51.234;6.804;2023-03-16T05:30:59;101187.06;;;24.04;33.33
10712;BME280;5407;51.234;6.804;2023-03-16T05:33:31;101186.28;;;24.03;33.22
10712;BME280;5407;51.234;6.804;2023-03-16T05:36:04;101178.44;;;24.02;33.30
10712;BME280;5407;51.234;6.804;2023-03-16T05:38:32;101183.19;;;24.01;33.20
10712;BME280;5407;51.234;6.804;2023-03-16T05:41:01;101180.81;;;24.00;33.39
10712;BME280;5407;51.234;6.804;2023-03-16T05:43:50;101186.78;;;23.98;33.37
10712;BME280;5407;51.234;6.804;2023-03-16T05:46:18;101187.13;;;24.00;33.23
10712;BME280;5407;51.234;6.804;2023-03-16T05:48:45;101191.84;;;24.00;33.28
10712;BME280;5407;51.234;6.804;2023-03-16T05:51:14;101184.78;;;23.99;33.28
10712;BME280;5407;51.234;6.804;2023-03-16T05:53:41;101196.59;;;23.99;33.29
10712;BME280;5407;51.234;6.804;2023-03-16T05:56:19;101196.59;;;23.99;33.06
10712;BME280;5407;51.234;6.804;2023-03-16T05:58:46;101195.81;;;23.99;33.15
10712;BME280;5407;51.234;6.804;2023-03-16T06:01:15;101195.03;;;23.98;33.27
10712;BME280;5407;51.234;6.804;2023-03-16T06:03:42;101192.28;;;23.98;32.97
10712;BME280;5407;51.234;6.804;2023-03-16T06:06:14;101195.81;;;23.99;32.99
10712;BME280;5407;51.234;6.804;2023-03-16T06:08:51;101189.53;;;23.98;33.10
10712;BME280;5407;51.234;6.804;2023-03-16T06:11:21;101189.53;;;23.98;33.12
10712;BME280;5407;51.234;6.804;2023-03-16T06:13:48;101190.28;;;23.99;33.16
10712;BME280;5407;51.234;6.804;2023-03-16T06:16:17;101179.69;;;23.97;33.00
10712;BME280;5407;51.234;6.804;2023-03-16T06:18:44;101189.53;;;23.98;33.01
10712;BME280;5407;51.234;6.804;2023-03-16T06:21:11;101189.53;;;23.98;32.90
10712;BME280;5407;51.234;6.804;2023-03-16T06:23:38;101195.03;;;23.98;33.03
10712;BME280;5407;51.234;6.804;2023-03-16T06:26:06;101191.94;;;23.96;32.85
10712;BME280;5407;51.234;6.804;2023-03-16T06:28:35;101190.72;;;23.97;32.90
10712;BME280;5407;51.234;6.804;2023-03-16T06:31:02;101186.41;;;23.96;32.97
10712;BME280;5407;51.234;6.804;2023-03-16T06:33:34;101193.88;;;23.96;32.86
10712;BME280;5407;51.234;6.804;2023-03-16T06:36:01;101197.47;;;23.93;32.80
10712;BME280;5407;51.234;6.804;2023-03-16T06:38:34;101195.16;;;23.91;32.88
10712;BME280;5407;51.234;6.804;2023-03-16T06:41:13;101199.13;;;23.90;33.01
10712;BME280;5407;51.234;6.804;2023-03-16T06:43:40;101199.13;;;23.90;32.85
10712;BME280;5407;51.234;6.804;2023-03-16T06:46:08;101199.88;;;23.91;33.04
10712;BME280;5407;51.234;6.804;2023-03-16T06:48:37;101200.31;;;23.89;33.06
10712;BME280;5407;51.234;6.804;2023-03-16T06:51:04;101203.84;;;23.90;32.87
10712;BME280;5407;51.234;6.804;2023-03-16T06:53:33;101213.31;;;23.89;33.34
10712;BME280;5407;51.234;6.804;2023-03-16T06:56:00;101197.59;;;23.86;33.36
10712;BME280;5407;51.234;6.804;2023-03-16T06:58:30;101195.16;;;23.91;33.54
10712;BME280;5407;51.234;6.804;2023-03-16T07:01:00;101195.16;;;23.91;33.55
10712;BME280;5407;51.234;6.804;2023-03-16T07:03:28;101196.72;;;23.92;33.41
10712;BME280;5407;51.234;6.804;2023-03-16T07:06:01;101195.53;;;23.93;33.33
10712;BME280;5407;51.234;6.804;2023-03-16T07:08:28;101203.78;;;23.93;33.45
10712;BME280;5407;51.234;6.804;2023-03-16T07:10:55;101205.34;;;23.94;33.41
10712;BME280;5407;51.234;6.804;2023-03-16T07:13:22;101199.84;;;23.94;33.44
10712;BME280;5407;51.234;6.804;2023-03-16T07:15:50;101209.66;;;23.95;33.46
10712;BME280;5407;51.234;6.804;2023-03-16T07:18:19;101205.34;;;23.94;33.40
10712;BME280;5407;51.234;6.804;2023-03-16T07:20:46;101213.97;;;23.96;33.46
10712;BME280;5407;51.234;6.804;2023-03-16T07:23:15;101206.13;;;23.95;33.39
10712;BME280;5407;51.234;6.804;2023-03-16T07:25:43;101206.91;;;23.95;33.43
10712;BME280;5407;51.234;6.804;2023-03-16T07:28:11;101211.22;;;23.96;33.41
10712;BME280;5407;51.234;6.804;2023-03-16T07:30:40;101217.94;;;23.95;33.50
10712;BME280;5407;51.234;6.804;2023-03-16T07:33:08;101213.19;;;23.96;33.40
10712;BME280;5407;51.234;6.804;2023-03-16T07:35:37;101214.75;;;23.97;33.46
10712;BME280;5407;51.234;6.804;2023-03-16T07:38:04;101222.66;;;23.95;33.23
10712;BME280;5407;51.234;6.804;2023-03-16T07:40:33;101209.66;;;23.95;33.22
10712;BME280;5407;51.234;6.804;2023-03-16T07:43:07;101211.22;;;23.96;33.29
10712;BME280;5407;51.234;6.804;2023-03-16T07:45:40;101212.78;;;23.97;33.32
10712;BME280;5407;51.234;6.804;2023-03-16T07:48:07;101219.84;;;23.98;33.19
10712;BME280;5407;51.234;6.804;2023-03-16T07:50:47;101206.06;;;23.98;33.33
10712;BME280;5407;51.234;6.804;2023-03-16T07:53:14;101216.31;;;23.98;33.33
10712;BME280;5407;51.234;6.804;2023-03-16T07:55:45;101225.00;;;23.96;33.49
10712;BME280;5407;51.234;6.804;2023-03-16T07:58:12;101211.56;;;23.98;33.45
10712;BME280;5407;51.234;6.804;2023-03-16T08:00:41;101217.84;;;23.99;33.54
10712;BME280;5407;51.234;6.804;2023-03-16T08:03:08;101209.19;;;24.00;33.43
10712;BME280;5407;51.234;6.804;2023-03-16T08:05:35;101213.91;;;24.00;33.37
10712;BME280;5407;51.234;6.804;2023-03-16T08:08:07;101216.25;;;24.01;33.36
10712;BME280;5407;51.234;6.804;2023-03-16T08:10:35;101205.22;;;24.01;33.46
10712;BME280;5407;51.234;6.804;2023-03-16T08:13:09;101201.28;;;24.02;33.26
10712;BME280;5407;51.234;6.804;2023-03-16T08:15:40;101206.00;;;24.02;33.46
10712;BME280;5407;51.234;6.804;2023-03-16T08:18:17;101195.75;;;24.02;33.29
10712;BME280;5407;51.234;6.804;2023-03-16T08:20:44;101202.03;;;24.03;33.26
10712;BME280;5407;51.234;6.804;2023-03-16T08:23:11;101191.81;;;24.03;33.25
10712;BME280;5407;51.234;6.804;2023-03-16T08:25:40;101197.31;;;24.03;33.47
10712;BME280;5407;51.234;6.804;2023-03-16T08:28:15;101191.00;;;24.03;33.36
10712;BME280;5407;51.234;6.804;2023-03-16T08:30:49;101187.06;;;24.04;33.45
10712;BME280;5407;51.234;6.804;2023-03-16T08:33:32;101191.00;;;24.03;33.22
10712;BME280;5407;51.234;6.804;2023-03-16T08:36:01;101188.25;;;24.03;33.31
10712;BME280;5407;51.234;6.804;2023-03-16T08:38:28;101194.19;;;24.01;33.41
10712;BME280;5407;51.234;6.804;2023-03-16T08:40:59;101191.44;;;24.01;33.44
10712;BME280;5407;51.234;6.804;2023-03-16T08:43:28;101192.66;;;24.00;33.36
10712;BME280;5407;51.234;6.804;2023-03-16T08:45:55;101192.66;;;24.00;33.25
10712;BME280;5407;51.234;6.804;2023-03-16T08:48:27;101198.91;;;24.01;33.30
10712;BME280;5407;51.234;6.804;2023-03-16T08:50:54;101195.41;;;24.00;33.35
10712;BME280;5407;51.234;6.804;2023-03-16T08:53:22;101202.88;;;24.00;33.16
10712;BME280;5407;51.234;6.804;2023-03-16T08:55:48;101202.13;;;23.99;33.27
10712;BME280;5407;51.234;6.804;2023-03-16T08:58:16;101217.03;;;24.02;33.29
10712;BME280;5407;51.234;6.804;2023-03-16T09:00:44;101215.06;;;24.02;33.15
10712;BME280;5407;51.234;6.804;2023-03-16T09:03:11;101209.91;;;24.04;33.20
10712;BME280;5407;51.234;6.804;2023-03-16T09:05:38;101198.44;;;24.06;33.31
10712;BME280;5407;51.234;6.804;2023-03-16T09:08:04;101197.25;;;24.07;33.08
10712;BME280;5407;51.234;6.804;2023-03-16T09:10:31;101192.53;;;24.07;33.15
10712;BME280;5407;51.234;6.804;2023-03-16T09:12:58;101200.78;;;24.07;33.06
10712;BME280;5407;51.234;6.804;2023-03-16T09:15:25;101205.09;;;24.08;33.13
10712;BME280;5407;51.234;6.804;2023-03-16T09:17:53;101189.31;;;24.09;32.83
10712;BME280;5407;51.234;6.804;2023-03-16T09:20:21;101188.47;;;24.12;32.91
10712;BME280;5407;51.234;6.804;2023-03-16T09:22:48;101182.56;;;24.13;33.23
10712;BME280;5407;51.234;6.804;2023-03-16T09:25:15;101182.91;;;24.15;32.84
10712;BME280;5407;51.234;6.804;2023-03-16T09:27:42;101182.16;;;24.15;32.99
10712;BME280;5407;51.234;6.804;2023-03-16T09:30:10;101173.09;;;24.14;32.87
10712;BME280;5407;51.234;6.804;2023-03-16T09:32:37;101177.06;;;24.13;32.78
10712;BME280;5407;51.234;6.804;2023-03-16T09:35:07;101182.22;;;24.11;33.01
10712;BME280;5407;51.234;6.804;2023-03-16T09:37:34;101175.13;;;24.10;32.93
10712;BME280;5407;51.234;6.804;2023-03-16T09:40:00;101181.06;;;24.09;32.95
10712;BME280;5407;51.234;6.804;2023-03-16T09:42:34;101171.22;;;24.08;32.98
10712;BME280;5407;51.234;6.804;2023-03-16T09:45:13;101167.72;;;24.07;33.15
10712;BME280;5407;51.234;6.804;2023-03-16T09:47:42;101158.66;;;24.07;33.27
10712;BME280;5407;51.234;6.804;2023-03-16T09:50:19;101151.56;;;24.06;33.19
10712;BME280;5407;51.234;6.804;2023-03-16T09:52:53;101151.56;;;24.06;33.23
10712;BME280;5407;51.234;6.804;2023-03-16T09:55:26;101141.00;;;24.04;33.17
10712;BME280;5407;51.234;6.804;2023-03-16T09:57:57;101135.47;;;24.04;33.27
10712;BME280;5407;51.234;6.804;2023-03-16T10:00:26;101129.97;;;24.04;33.15
10712;BME280;5407;51.234;6.804;2023-03-16T10:03:07;101131.16;;;24.03;33.21
10712;BME280;5407;51.234;6.804;2023-03-16T10:05:38;101129.59;;;24.02;33.12
10712;BME280;5407;51.234;6.804;2023-03-16T10:08:09;101129.53;;;24.06;33.30
10712;BME280;5407;51.234;6.804;2023-03-16T10:11:08;101124.81;;;24.06;33.16
10712;BME280;5407;51.234;6.804;2023-03-16T10:13:40;101124.00;;;24.06;33.27
10712;BME280;5407;51.234;6.804;2023-03-16T10:16:13;101121.69;;;24.04;33.17
10712;BME280;5407;51.234;6.804;2023-03-16T10:18:45;101116.19;;;24.04;33.17
10712;BME280;5407;51.234;6.804;2023-03-16T10:21:15;101116.59;;;24.03;33.33
10712;BME280;5407;51.234;6.804;2023-03-16T10:23:43;101117.38;;;24.03;33.40
10712;BME280;5407;51.234;6.804;2023-03-16T10:26:16;101127.97;;;24.05;33.16
10712;BME280;5407;51.234;6.804;2023-03-16T10:28:44;101120.91;;;24.04;33.27
10712;BME280;5407;51.234;6.804;2023-03-16T10:31:11;101118.94;;;24.04;33.17
10712;BME280;5407;51.234;6.804;2023-03-16T10:33:39;101120.50;;;24.05;33.35
10712;BME280;5407;51.234;6.804;2023-03-16T10:36:15;101118.50;;;24.06;33.24
10712;BME280;5407;51.234;6.804;2023-03-16T10:38:46;101120.84;;;24.07;33.12
10712;BME280;5407;51.234;6.804;2023-03-16T10:41:20;101120.84;;;24.07;33.16
10712;BME280;5407;51.234;6.804;2023-03-16T10:43:50;101116.88;;;24.08;33.30
10712;BME280;5407;51.234;6.804;2023-03-16T10:46:17;101111.38;;;24.08;33.14
10712;BME280;5407;51.234;6.804;2023-03-16T10:48:51;101101.91;;;24.09;33.22
10712;BME280;5407;51.234;6.804;2023-03-16T10:51:23;101088.88;;;24.10;33.29
10712;BME280;5407;51.234;6.804;2023-03-16T10:53:51;101092.44;;;24.10;33.28
10712;BME280;5407;51.234;6.804;2023-03-16T10:56:22;101089.25;;;24.12;33.05
10712;BME280;5407;51.234;6.804;2023-03-16T10:58:49;101084.53;;;24.12;33.13
10712;BME280;5407;51.234;6.804;2023-03-16T11:01:18;101080.56;;;24.13;33.08
10712;BME280;5407;51.234;6.804;2023-03-16T11:03:48;101070.31;;;24.14;33.09
10712;BME280;5407;51.234;6.804;2023-03-16T11:06:19;101066.38;;;24.15;33.08
10712;BME280;5407;51.234;6.804;2023-03-16T11:08:48;101067.13;;;24.15;32.91
10712;BME280;5407;51.234;6.804;2023-03-16T11:11:21;101067.94;;;24.16;33.14
10712;BME280;5407;51.234;6.804;2023-03-16T11:13:55;101083.66;;;24.15;33.24
10712;BME280;5407;51.234;6.804;2023-03-16T11:16:26;101075.00;;;24.17;33.11
10712;BME280;5407;51.234;6.804;2023-03-16T11:18:57;101056.91;;;24.16;33.29
10712;BME280;5407;51.234;6.804;2023-03-16T11:21:33;101059.22;;;24.17;33.16
10712;BME280;5407;51.234;6.804;2023-03-16T11:24:05;101060.00;;;24.18;33.36
10712;BME280;5407;51.234;6.804;2023-03-16T11:26:39;101044.22;;;24.18;33.21
10712;BME280;5407;51.234;6.804;2023-03-16T11:29:15;101043.03;;;24.19;33.13
10712;BME280;5407;51.234;6.804;2023-03-16T11:31:46;101043.81;;;24.20;33.15
10712;BME280;5407;51.234;6.804;2023-03-16T11:34:20;101035.47;;;24.23;33.19
10712;BME280;5407;51.234;6.804;2023-03-16T11:36:52;101047.28;;;24.24;32.92
10712;BME280;5407;51.234;6.804;2023-03-16T11:39:29;101039.00;;;24.24;33.04
10712;BME280;5407;51.234;6.804;2023-03-16T11:42:06;101040.13;;;24.26;33.07
10712;BME280;5407;51.234;6.804;2023-03-16T11:44:42;101025.13;;;24.27;33.21
10712;BME280;5407;51.234;6.804;2023-03-16T11:47:27;101033.41;;;24.27;33.21
10712;BME280;5407;51.234;6.804;2023-03-16T11:50:00;101016.44;;;24.29;33.04
10712;BME280;5407;51.234;6.804;2023-03-16T11:52:40;101011.69;;;24.29;33.35
10712;BME280;5407;51.234;6.804;2023-03-16T11:55:24;101006.97;;;24.30;33.26
10712;BME280;5407;51.234;6.804;2023-03-16T11:58:02;101006.19;;;24.29;33.24
10712;BME280;5407;51.234;6.804;2023-03-16T12:00:44;101006.97;;;24.30;33.43
10712;BME280;5407;51.234;6.804;2023-03-16T12:03:45;101004.13;;;24.33;33.45
10712;BME280;5407;51.234;6.804;2023-03-16T12:06:29;100992.75;;;24.31;33.52
10712;BME280;5407;51.234;6.804;2023-03-16T12:09:13;100984.81;;;24.33;33.33
10712;BME280;5407;51.234;6.804;2023-03-16T12:11:50;100982.06;;;24.33;33.41
10712;BME280;5407;51.234;6.804;2023-03-16T12:14:23;100977.69;;;24.36;33.54
10712;BME280;5407;51.234;6.804;2023-03-16T12:16:54;100965.09;;;24.35;33.57
10712;BME280;5407;51.234;6.804;2023-03-16T12:19:30;100965.84;;;24.35;33.56
10712;BME280;5407;51.234;6.804;2023-03-16T12:22:07;100964.69;;;24.36;33.65
10712;BME280;5407;51.234;6.804;2023-03-16T12:24:41;100952.16;;;24.32;33.28
10712;BME280;5407;51.234;6.804;2023-03-16T12:27:13;100957.25;;;24.33;33.09
10712;BME280;5407;51.234;6.804;2023-03-16T12:29:51;100961.13;;;24.36;33.43
10712;BME280;5407;51.234;6.804;2023-03-16T12:32:28;100940.22;;;24.38;33.65
10712;BME280;5407;51.234;6.804;2023-03-16T12:35:03;100932.28;;;24.40;33.75
10712;BME280;5407;51.234;6.804;2023-03-16T12:37:34;100925.56;;;24.41;33.66
10712;BME280;5407;51.234;6.804;2023-03-16T12:40:11;100930.28;;;24.41;33.80
10712;BME280;5407;51.234;6.804;2023-03-16T12:43:14;100928.69;;;24.43;33.77
10712;BME280;5407;51.234;6.804;2023-03-16T12:45:50;100919.59;;;24.43;33.63
10712;BME280;5407;51.234;6.804;2023-03-16T12:48:25;100910.56;;;24.42;33.60
10712;BME280;5407;51.234;6.804;2023-03-16T12:50:56;100894.78;;;24.43;33.90
10712;BME280;5407;51.234;6.804;2023-03-16T12:53:28;100894.78;;;24.43;33.61
10712;BME280;5407;51.234;6.804;2023-03-16T12:56:05;100887.31;;;24.43;33.68
10712;BME280;5407;51.234;6.804;2023-03-16T12:58:34;100885.31;;;24.44;33.66
10712;BME280;5407;51.234;6.804;2023-03-16T13:01:07;100886.09;;;24.44;33.82
10712;BME280;5407;51.234;6.804;2023-03-16T13:03:36;100880.59;;;24.44;33.70
10712;BME280;5407;51.234;6.804;2023-03-16T13:06:04;100891.63;;;24.44;33.86
10712;BME280;5407;51.234;6.804;2023-03-16T13:08:40;100880.59;;;24.44;33.87
10712;BME280;5407;51.234;6.804;2023-03-16T13:11:09;100869.56;;;24.44;33.62
10712;BME280;5407;51.234;6.804;2023-03-16T13:13:49;100867.13;;;24.46;33.92
10712;BME280;5407;51.234;6.804;2023-03-16T13:16:25;100869.91;;;24.46;33.77
10712;BME280;5407;51.234;6.804;2023-03-16T13:18:53;100861.63;;;24.46;33.73